Bookmark and Share
Track history (hours):
 

Arrantzale

Last reported at 2014-Apr-16 13:12 UTC. Time now 2014-Apr-20 23:55 UTC.
Position N 43°23' W 001°47'.

Length 32 m.

Type: Fishing. MMSI: 224065290.

NotesDate/timePositionNaut miles runAvg speedWind from/ knotsBaromVisibWave heightAir tempDewpointWater temp
2014-Apr-16 13:12N 43°23' W 001°47'0 0.1
2014-Apr-16 12:33N 43°23' W 001°47'0 0.0
2014-Apr-16 11:32N 43°23' W 001°47'0 0.0
2014-Apr-16 10:33N 43°23' W 001°47'0 0.0
2014-Apr-16 09:33N 43°23' W 001°47'3 0.1
2014-Apr-15 12:31N 43°26' W 001°46'3 2.7
2014-Apr-15 11:34N 43°23' W 001°48'0 0.0
2014-Apr-15 10:33N 43°23' W 001°48'0 0.0
2014-Apr-15 09:30N 43°23' W 001°48'0 0.0
2014-Apr-15 07:33N 43°23' W 001°48'0 0.0
2014-Apr-15 06:34N 43°23' W 001°48'0 0.1
2014-Apr-15 05:34N 43°23' W 001°47'4 0.2
2014-Apr-14 06:33N 43°27' W 001°46'4 3.7
2014-Apr-14 05:32N 43°23' W 001°48'  
2014-Apr-11 12:30N 43°23' W 001°47'0 0.1
2014-Apr-11 11:33N 43°23' W 001°48'0 0.3
2014-Apr-11 10:33N 43°23' W 001°47'0 0.0
2014-Apr-10 15:33N 43°23' W 001°47'0 0.0
2014-Apr-10 14:32N 43°23' W 001°47'0 0.0
2014-Apr-10 13:33N 43°23' W 001°47'0 0.0
2014-Apr-10 12:33N 43°23' W 001°47'0 0.0
2014-Apr-10 11:33N 43°23' W 001°47'0 0.0
2014-Apr-10 10:30N 43°23' W 001°47'0 0.0
2014-Apr-10 09:30N 43°23' W 001°47'8 8.2
2014-Apr-10 08:33N 43°31' W 001°44'5 0.4
2014-Apr-09 18:33N 43°26' W 001°46'3 2.9
2014-Apr-09 17:33N 43°23' W 001°48'0 0.0
2014-Apr-09 16:33N 43°23' W 001°48'0 0.0
2014-Apr-09 09:27N 43°23' W 001°48'0 0.0
2014-Apr-09 08:33N 43°23' W 001°48'0 0.0
2014-Apr-09 07:33N 43°23' W 001°48'0 0.1
2014-Apr-09 06:33N 43°23' W 001°48'0 0.0
2014-Apr-09 05:34N 43°23' W 001°47'2 0.1
2014-Apr-08 15:24N 43°24' W 001°49'2 1.7
2014-Apr-08 14:28N 43°23' W 001°47'0 0.0
2014-Apr-08 13:32N 43°23' W 001°47'0 0.0
2014-Apr-08 12:32N 43°23' W 001°47'0 0.0
2014-Apr-08 11:32N 43°23' W 001°47'0 0.0
2014-Apr-08 10:33N 43°23' W 001°47'0 0.0
2014-Apr-08 09:28N 43°23' W 001°47'0 0.0
2014-Apr-08 08:33N 43°23' W 001°47'0 0.1
2014-Apr-08 07:31N 43°23' W 001°48'0 0.0
2014-Apr-08 06:31N 43°23' W 001°48'1 0.1
2014-Apr-07 07:33N 43°24' W 001°48'  

Dump ship's entire track history

sailing weather and tide predictions

Arrantzale — EBVT — position and weather